createdAt,value
2022-09-12T00:03:44.734Z,13.32
2022-09-12T00:06:21.854Z,10.15
2022-09-12T00:08:49.400Z,9.23
2022-09-12T00:11:15.973Z,11.43
2022-09-12T00:13:42.900Z,10.05
2022-09-12T00:16:27.807Z,12.48
2022-09-12T00:18:54.596Z,9.52
2022-09-12T00:21:22.884Z,11.35
2022-09-12T00:23:50.590Z,10.45
2022-09-12T00:26:18.608Z,12.40
2022-09-12T00:28:45.604Z,11.63
2022-09-12T00:31:16.876Z,13.65
2022-09-12T00:33:43.890Z,10.98
2022-09-12T00:36:15.932Z,15.10
2022-09-12T00:38:43.760Z,14.57
2022-09-12T00:41:17.899Z,15.20
2022-09-12T00:43:53.151Z,15.20
2022-09-12T00:49:10.547Z,16.13
2022-09-12T00:51:38.124Z,17.33
2022-09-12T00:54:10.806Z,15.10
2022-09-12T00:56:39.790Z,14.90
2022-09-12T00:59:13.235Z,15.82
2022-09-12T01:01:42.078Z,15.07
2022-09-12T01:04:11.542Z,12.80
2022-09-12T01:06:41.877Z,13.57
2022-09-12T01:09:09.720Z,12.18
2022-09-12T01:11:38.774Z,10.75
2022-09-12T01:14:06.178Z,12.95
2022-09-12T01:16:36.062Z,14.30
2022-09-12T01:24:55.175Z,14.70
2022-09-12T01:28:01.498Z,15.50
2022-09-12T01:30:54.082Z,12.27
2022-09-12T01:44:24.149Z,11.93
2022-09-12T01:47:09.407Z,14.90
2022-09-12T01:50:07.395Z,11.00
2022-09-12T01:52:56.012Z,12.35
2022-09-12T01:55:30.541Z,10.00
2022-09-12T02:00:50.726Z,9.63
2022-09-12T02:03:24.167Z,9.13
2022-09-12T02:06:00.808Z,10.73
2022-09-12T02:08:33.386Z,11.02
2022-09-12T02:11:05.900Z,11.30
2022-09-12T02:13:41.100Z,7.40
2022-09-12T02:16:18.065Z,9.38
2022-09-12T02:18:50.633Z,10.63
2022-09-12T02:21:19.464Z,9.05
2022-09-12T02:23:51.302Z,10.70
2022-09-12T02:26:23.864Z,11.32
2022-09-12T02:28:50.910Z,7.68
2022-09-12T02:39:35.112Z,10.30
2022-09-12T02:42:03.077Z,7.40
2022-09-12T02:44:31.973Z,13.85
2022-09-12T02:47:05.565Z,8.90
2022-09-12T02:49:32.224Z,9.57
2022-09-12T02:52:00.097Z,18.08
2022-09-12T02:54:27.986Z,8.48
2022-09-12T02:56:54.612Z,8.85
2022-09-12T02:59:23.485Z,8.57
2022-09-12T03:29:20.263Z,13.68
2022-09-12T03:31:50.349Z,11.30
2022-09-12T03:34:17.108Z,11.95
2022-09-12T03:36:43.636Z,14.52
2022-09-12T03:39:10.167Z,12.70
2022-09-12T03:41:36.793Z,13.30
2022-09-12T03:44:03.765Z,18.55
2022-09-12T03:46:30.356Z,17.13
2022-09-12T03:48:56.933Z,14.95
2022-09-12T03:51:23.484Z,15.45
2022-09-12T03:53:50.011Z,13.95
2022-09-12T03:56:16.949Z,14.73
2022-09-12T03:58:43.707Z,14.80
2022-09-12T04:01:12.978Z,15.55
2022-09-12T04:03:42.627Z,15.27
2022-09-12T04:06:10.791Z,13.90
2022-09-12T04:08:38.530Z,12.95
2022-09-12T04:11:07.091Z,14.70
2022-09-12T04:13:35.291Z,14.70
2022-09-12T04:16:02.630Z,16.67
2022-09-12T04:18:29.214Z,12.23
2022-09-12T04:20:55.760Z,14.23
2022-09-12T04:23:22.624Z,13.68
2022-09-12T04:25:58.919Z,18.58
2022-09-12T04:28:26.581Z,13.43
2022-09-12T04:30:53.126Z,13.50
2022-09-12T04:33:19.785Z,12.23
2022-09-12T04:35:46.414Z,12.90
2022-09-12T04:38:12.941Z,13.48
2022-09-12T04:40:39.783Z,13.43
2022-09-12T04:43:09.225Z,12.07
2022-09-12T04:45:37.894Z,11.63
2022-09-12T04:48:04.660Z,9.25
2022-09-12T04:50:31.236Z,15.05
2022-09-12T04:52:57.790Z,10.23
2022-09-12T04:55:25.558Z,12.23
2022-09-12T04:57:53.045Z,10.95
2022-09-12T05:00:20.578Z,11.43
2022-09-12T05:02:47.460Z,11.75
2022-09-12T05:05:14.024Z,9.95
2022-09-12T05:07:40.854Z,13.15
2022-09-12T05:10:08.053Z,13.23
2022-09-12T05:12:34.799Z,13.65
2022-09-12T05:15:01.369Z,13.50
2022-09-12T05:17:30.110Z,11.25
2022-09-12T05:19:56.627Z,10.25
2022-09-12T05:22:23.196Z,12.50
2022-09-12T05:24:50.717Z,13.20
2022-09-12T05:27:17.452Z,14.02
2022-09-12T05:29:43.985Z,13.18
2022-09-12T05:32:12.475Z,11.57
2022-09-12T05:34:40.218Z,12.07
2022-09-12T05:37:06.769Z,18.45
2022-09-12T05:39:33.704Z,22.35
2022-09-12T05:42:00.279Z,18.20
2022-09-12T05:44:26.921Z,17.85
2022-09-12T05:46:53.692Z,19.23
2022-09-12T05:49:21.563Z,16.08
2022-09-12T05:51:48.165Z,18.38
2022-09-12T05:54:17.942Z,25.70
2022-09-12T05:56:45.454Z,19.40
2022-09-12T05:59:18.156Z,19.95
2022-09-12T06:01:45.654Z,17.75
2022-09-12T06:04:12.308Z,18.90
2022-09-12T06:06:42.499Z,14.93
2022-09-12T06:09:09.994Z,14.23
2022-09-12T06:11:40.802Z,15.52
2022-09-12T06:14:08.739Z,15.02
2022-09-12T06:16:35.670Z,13.85
2022-09-12T06:19:06.975Z,17.20
2022-09-12T06:21:35.403Z,16.73
2022-09-12T06:24:02.488Z,15.32
2022-09-12T06:26:29.521Z,17.63
2022-09-12T06:28:58.252Z,19.58
2022-09-12T06:31:29.450Z,18.58
2022-09-12T06:33:57.220Z,16.52
2022-09-12T06:36:27.964Z,15.98
2022-09-12T06:38:57.200Z,16.58
2022-09-12T06:41:25.280Z,15.57
2022-09-12T06:43:52.085Z,12.88
2022-09-12T06:46:19.197Z,15.68
2022-09-12T06:48:45.869Z,18.80
2022-09-12T06:51:14.837Z,19.98
2022-09-12T06:53:42.297Z,16.23
2022-09-12T06:56:12.051Z,16.00
2022-09-12T06:58:39.089Z,17.27
2022-09-12T07:03:44.348Z,15.02
2022-09-12T07:06:13.865Z,16.77
2022-09-12T07:08:41.116Z,14.20
2022-09-12T07:13:55.245Z,15.95
2022-09-12T07:16:22.231Z,15.55
2022-09-12T07:18:52.276Z,12.93
2022-09-12T07:21:18.896Z,17.17
2022-09-12T07:23:45.696Z,16.80
2022-09-12T07:26:14.192Z,14.15
2022-09-12T07:28:41.233Z,12.60
2022-09-12T07:31:11.196Z,12.45
2022-09-12T07:33:39.074Z,10.23
2022-09-12T07:36:08.790Z,11.90
2022-09-12T07:38:35.372Z,14.30
2022-09-12T07:41:01.955Z,11.55
2022-09-12T07:43:28.681Z,10.43
2022-09-12T07:45:56.982Z,12.52
2022-09-12T07:48:23.764Z,14.75
2022-09-12T07:51:08.356Z,12.48
2022-09-12T07:53:38.417Z,11.98
2022-09-12T07:56:06.597Z,12.45
2022-09-12T07:58:34.827Z,14.35
2022-09-12T08:01:03.907Z,14.80
2022-09-12T08:03:30.504Z,10.85
2022-09-12T08:06:05.001Z,10.48
2022-09-12T08:08:31.992Z,13.75
2022-09-12T08:11:00.634Z,10.82
2022-09-12T08:13:28.343Z,7.68
2022-09-12T08:16:05.986Z,8.90
2022-09-12T08:18:33.001Z,9.70
2022-09-12T08:21:01.297Z,9.98
2022-09-12T08:23:29.358Z,8.25
2022-09-12T08:25:58.038Z,6.00
2022-09-12T08:28:26.348Z,7.57
2022-09-12T08:30:54.162Z,6.93
2022-09-12T08:33:20.977Z,8.15
2022-09-12T08:35:47.707Z,6.75
2022-09-12T08:38:14.252Z,6.63
2022-09-12T08:46:13.754Z,6.20
2022-09-12T08:48:42.736Z,4.20
2022-09-12T08:51:13.162Z,5.80
2022-09-12T08:53:41.302Z,9.48
2022-09-12T08:56:11.754Z,5.72
2022-09-12T08:58:42.092Z,5.65
2022-09-12T09:09:31.043Z,4.28
2022-09-12T09:23:23.205Z,4.10
2022-09-12T09:31:17.872Z,2.83
2022-09-12T09:33:48.146Z,3.63
2022-09-12T09:36:25.190Z,3.42
2022-09-12T09:39:05.790Z,4.28
2022-09-12T09:41:52.628Z,3.75
2022-09-12T09:44:19.459Z,4.97
2022-09-12T09:46:47.281Z,4.03
2022-09-12T09:49:16.234Z,3.08
2022-09-12T09:51:42.922Z,5.30
2022-09-12T09:56:46.252Z,4.45
2022-09-12T09:59:33.882Z,3.63
2022-09-12T10:04:41.531Z,6.90
2022-09-12T10:07:18.833Z,3.55
2022-09-12T10:10:05.862Z,3.35
2022-09-12T10:12:32.412Z,3.53
2022-09-12T10:15:01.967Z,5.32
2022-09-12T10:17:42.117Z,3.65
2022-09-12T10:25:58.406Z,4.80
2022-09-12T10:28:35.650Z,4.03
2022-09-12T10:31:02.818Z,4.35
2022-09-12T10:33:29.995Z,3.58
2022-09-12T10:35:57.123Z,2.97
2022-09-12T10:38:26.858Z,3.92
2022-09-12T10:43:39.721Z,4.53
2022-09-12T10:46:28.381Z,4.45
2022-09-12T10:49:24.223Z,6.32
2022-09-12T10:51:52.891Z,6.35
2022-09-12T10:54:22.347Z,6.53
2022-09-12T11:05:23.002Z,4.05
2022-09-12T11:16:44.768Z,2.83
2022-09-12T12:16:43.765Z,5.75
2022-09-12T12:19:50.960Z,3.40
2022-09-12T12:27:56.333Z,2.65
2022-09-12T13:20:28.301Z,4.70
2022-09-12T13:22:56.811Z,5.90
2022-09-12T13:28:18.431Z,3.88
2022-09-12T13:30:56.309Z,7.45
2022-09-12T13:44:32.864Z,5.25
2022-09-12T13:47:01.756Z,6.32
2022-09-12T13:49:38.646Z,5.45
2022-09-12T13:52:09.507Z,5.35
2022-09-12T13:54:39.058Z,6.72
2022-09-12T13:57:06.312Z,5.97
2022-09-12T13:59:42.582Z,5.20
2022-09-12T14:02:20.491Z,6.22
2022-09-12T14:05:08.620Z,4.55
2022-09-12T14:07:45.862Z,4.88
2022-09-12T14:10:18.434Z,6.47
2022-09-12T14:12:50.785Z,4.53
2022-09-12T14:15:24.078Z,8.00
2022-09-12T14:17:53.805Z,4.53
2022-09-12T14:20:23.381Z,4.03
2022-09-12T14:22:52.493Z,6.40
2022-09-12T14:25:22.258Z,4.18
2022-09-12T14:27:53.937Z,5.32
2022-09-12T14:35:44.488Z,5.65
2022-09-12T14:40:52.990Z,4.57
2022-09-12T14:46:14.114Z,5.57
2022-09-12T14:48:46.768Z,6.90
2022-09-12T14:51:21.371Z,5.30
2022-09-12T14:53:49.995Z,4.95
2022-09-12T14:56:16.969Z,5.72
2022-09-12T14:58:43.601Z,4.78
2022-09-12T15:09:12.215Z,4.50
2022-09-12T15:11:39.191Z,5.07
2022-09-12T15:14:12.783Z,5.60
2022-09-12T15:16:39.411Z,4.05
2022-09-12T15:19:05.988Z,6.03
2022-09-12T15:21:32.645Z,5.25
2022-09-12T15:23:59.192Z,6.35
2022-09-12T15:26:27.581Z,8.82
2022-09-12T15:28:54.124Z,6.90
2022-09-12T15:31:31.346Z,5.88
2022-09-12T15:34:01.689Z,5.05
2022-09-12T15:36:29.216Z,6.32
2022-09-12T15:38:56.188Z,4.32
2022-09-12T15:44:06.730Z,4.72
2022-09-12T15:46:33.345Z,5.05
2022-09-12T15:49:00.017Z,5.07
2022-09-12T15:51:26.604Z,4.20
2022-09-12T15:53:53.357Z,5.10
2022-09-12T15:56:21.438Z,5.63
2022-09-12T15:58:59.222Z,3.63
2022-09-12T16:01:27.930Z,4.25
2022-09-12T16:03:54.605Z,6.82
2022-09-12T16:06:22.254Z,4.15
2022-09-12T16:08:49.226Z,3.53
2022-09-12T16:11:23.049Z,5.07
2022-09-12T16:13:49.758Z,6.15
2022-09-12T16:16:16.326Z,5.35
2022-09-12T16:18:43.166Z,4.07
2022-09-12T16:21:14.691Z,7.07
2022-09-12T16:23:46.626Z,6.15
2022-09-12T16:26:13.931Z,4.70
2022-09-12T16:28:40.551Z,4.68
2022-09-12T16:31:09.164Z,4.88
2022-09-12T16:33:38.228Z,4.85
2022-09-12T16:36:08.557Z,6.18
2022-09-12T16:38:41.134Z,5.25
2022-09-12T16:41:08.024Z,4.93
2022-09-12T16:43:35.576Z,5.93
2022-09-12T16:46:08.807Z,4.55
2022-09-12T16:48:36.244Z,7.28
2022-09-12T16:51:05.365Z,5.22
2022-09-12T16:53:34.893Z,8.98
2022-09-12T16:56:01.666Z,7.55
2022-09-12T16:58:28.325Z,9.10
2022-09-12T17:01:14.601Z,6.13
2022-09-12T17:03:41.529Z,8.20
2022-09-12T17:06:10.553Z,6.38
2022-09-12T17:08:39.789Z,5.30
2022-09-12T17:11:08.966Z,7.63
2022-09-12T17:14:00.262Z,8.68
2022-09-12T17:16:23.272Z,6.10
2022-09-12T17:18:51.355Z,11.95
2022-09-12T17:21:18.613Z,6.70
2022-09-12T17:23:45.927Z,6.70
2022-09-12T17:26:13.295Z,9.30
2022-09-12T17:28:40.213Z,8.18
2022-09-12T17:31:09.402Z,8.77
2022-09-12T17:33:36.946Z,8.30
2022-09-12T17:36:09.318Z,9.20
2022-09-12T17:38:38.027Z,8.80
2022-09-12T17:41:11.384Z,8.65
2022-09-12T17:43:38.122Z,6.82
2022-09-12T17:46:05.381Z,7.03
2022-09-12T17:48:32.535Z,5.97
2022-09-12T17:50:59.395Z,7.57
2022-09-12T17:53:25.989Z,9.85
2022-09-12T17:55:54.442Z,7.20
2022-09-12T17:58:21.033Z,6.97
2022-09-12T18:01:07.525Z,7.05
2022-09-12T18:03:35.204Z,6.57
2022-09-12T18:06:01.961Z,8.10
2022-09-12T18:08:28.473Z,7.40
2022-09-12T18:11:05.659Z,9.85
2022-09-12T18:13:33.424Z,9.35
2022-09-12T18:16:05.596Z,5.63
2022-09-12T18:18:33.966Z,6.28
2022-09-12T18:21:01.117Z,7.35
2022-09-12T18:23:27.889Z,10.73
2022-09-12T18:26:00.224Z,6.78
2022-09-12T18:28:27.153Z,8.15
2022-09-12T18:30:53.774Z,7.63
2022-09-12T18:33:23.934Z,7.60
2022-09-12T18:35:50.877Z,8.05
2022-09-12T18:38:17.954Z,7.05
2022-09-12T18:40:44.554Z,7.68
2022-09-12T18:43:31.011Z,8.27
2022-09-12T18:46:02.169Z,8.65
2022-09-12T18:48:31.530Z,8.07
2022-09-12T18:51:03.586Z,7.90
2022-09-12T18:53:30.130Z,9.65
2022-09-12T18:58:43.270Z,8.63
2022-09-12T19:01:13.805Z,12.38
2022-09-12T19:03:40.983Z,10.40
2022-09-12T19:06:11.852Z,10.43
2022-09-12T19:08:38.998Z,9.07
2022-09-12T19:11:06.605Z,7.68
2022-09-12T19:13:36.039Z,9.63
2022-09-12T19:16:04.730Z,10.15
2022-09-12T19:18:33.478Z,9.07
2022-09-12T19:21:01.423Z,8.55
2022-09-12T19:23:28.050Z,11.20
2022-09-12T19:25:57.881Z,7.82
2022-09-12T19:28:24.442Z,7.65
2022-09-12T19:30:51.122Z,7.88
2022-09-12T19:33:17.912Z,7.22
2022-09-12T19:35:44.640Z,10.40
2022-09-12T19:38:11.331Z,7.20
2022-09-12T19:40:39.654Z,8.60
2022-09-12T19:43:07.372Z,8.40
2022-09-12T19:45:34.200Z,10.85
2022-09-12T19:48:01.005Z,9.63
2022-09-12T19:50:28.206Z,7.50
2022-09-12T19:52:54.700Z,9.93
2022-09-12T19:55:22.268Z,8.45
2022-09-12T19:57:48.798Z,7.03
2022-09-12T20:00:15.415Z,7.72
2022-09-12T20:02:42.055Z,11.15
2022-09-12T20:05:09.079Z,7.38
2022-09-12T20:07:35.634Z,8.27
2022-09-12T20:10:02.172Z,7.90
2022-09-12T20:12:28.756Z,6.50
2022-09-12T20:14:55.306Z,6.88
2022-09-12T20:17:21.841Z,7.90
2022-09-12T20:19:52.785Z,7.43
2022-09-12T20:22:19.306Z,11.70
2022-09-12T20:24:45.914Z,8.85
2022-09-12T20:27:12.707Z,5.97
2022-09-12T20:29:39.241Z,6.97
2022-09-12T20:32:05.826Z,5.20
2022-09-12T20:34:32.388Z,9.05
2022-09-12T20:37:00.236Z,5.85
2022-09-12T20:39:27.423Z,7.75
2022-09-12T20:41:53.947Z,6.90
2022-09-12T20:44:20.573Z,6.30
2022-09-12T20:46:47.448Z,7.15
2022-09-12T20:49:14.090Z,8.80
2022-09-12T20:51:40.637Z,5.45
2022-09-12T20:54:07.928Z,5.70
2022-09-12T20:56:36.622Z,6.38
2022-09-12T20:59:04.650Z,8.32
2022-09-12T21:01:31.929Z,8.68
2022-09-12T21:04:00.885Z,5.82
2022-09-12T21:06:27.870Z,5.90
2022-09-12T21:08:58.664Z,7.28
2022-09-12T21:11:25.675Z,6.30
2022-09-12T21:13:53.348Z,10.50
2022-09-12T21:16:22.421Z,6.95
2022-09-12T21:18:58.521Z,9.27
2022-09-12T21:21:25.961Z,8.43
2022-09-12T21:23:55.210Z,12.43
2022-09-12T21:26:21.742Z,7.90
2022-09-12T21:28:48.633Z,11.02
2022-09-12T21:31:15.231Z,8.07
2022-09-12T21:33:41.863Z,8.88
2022-09-12T21:36:09.588Z,8.48
2022-09-12T21:38:36.152Z,6.43
2022-09-12T21:41:06.076Z,8.10
2022-09-12T21:43:32.679Z,8.18
2022-09-12T21:46:00.121Z,8.20
2022-09-12T21:48:26.916Z,8.25
2022-09-12T21:50:53.605Z,8.52
2022-09-12T21:53:20.213Z,8.77
2022-09-12T21:55:46.729Z,7.28
2022-09-12T21:58:13.305Z,9.50
2022-09-12T22:00:41.401Z,10.25
2022-09-12T22:03:10.411Z,7.72
2022-09-12T22:05:40.246Z,8.90
2022-09-12T22:08:08.417Z,10.13
2022-09-12T22:10:35.597Z,9.63
2022-09-12T22:13:02.647Z,10.82
2022-09-12T22:15:40.525Z,9.00
2022-09-12T22:18:07.744Z,8.20
2022-09-12T22:20:34.274Z,8.45
2022-09-12T22:23:24.576Z,9.15
2022-09-12T22:25:54.451Z,9.60
2022-09-12T22:30:48.657Z,7.63
2022-09-12T22:33:15.214Z,7.75
2022-09-12T22:35:42.512Z,5.35
2022-09-12T22:38:09.223Z,6.30
2022-09-12T22:40:35.945Z,6.18
2022-09-12T22:43:02.528Z,5.43
2022-09-12T22:45:29.092Z,4.13
2022-09-12T22:47:59.194Z,5.82
2022-09-12T22:50:27.679Z,5.05
2022-09-12T22:52:54.295Z,4.93
2022-09-12T22:55:21.027Z,4.22
2022-09-12T22:57:47.586Z,4.20
2022-09-12T23:00:14.959Z,4.53
2022-09-12T23:02:41.609Z,4.13
2022-09-12T23:05:08.501Z,3.10
2022-09-12T23:07:35.324Z,2.53
2022-09-12T23:10:01.916Z,3.88
2022-09-12T23:12:28.501Z,3.50
2022-09-12T23:14:55.066Z,3.05
2022-09-12T23:17:21.648Z,3.53
2022-09-12T23:19:48.477Z,2.78
2022-09-12T23:22:15.061Z,2.42
2022-09-12T23:24:41.801Z,3.22
2022-09-12T23:27:08.960Z,3.08
2022-09-12T23:29:35.672Z,9.68
2022-09-12T23:32:03.714Z,1.80
2022-09-12T23:34:33.960Z,2.92
2022-09-12T23:37:00.598Z,2.40
2022-09-12T23:39:27.342Z,2.55
2022-09-12T23:41:53.969Z,1.55
2022-09-12T23:44:20.524Z,2.33
2022-09-12T23:46:47.047Z,1.85
2022-09-12T23:49:13.627Z,2.90
2022-09-12T23:51:40.171Z,2.97
2022-09-12T23:54:06.758Z,2.08
2022-09-12T23:56:33.290Z,2.88
2022-09-12T23:58:59.850Z,4.88
